Raleigh County Memorial Airport
KBKW : now visible

Airfield :











YOU CAN JOIN US ON...

 
LOGIN :

Register | Disclaimer

   EN    FR    IT 

 









Legend :    VFR   Marginal VFR   IFR   Intensive IFR   Very Intensive IFR
Visi :
Ceiling :
>= 8 km
>= 3000ft
5 to 8 km
1000 to 3000 ft
1500m to 5 km
500 to 1000 ft
800 to 1500m
200 to 500 ft
< 800m
< 200 ft
Symbols :   Thunderstorms  Fog  Heavy snow  Heavy precipitations  Wind > 20 kt







- Airport Elevation : 2504 ft
- IATA code : BKW


KBKW - Raleigh County Memorial

CURRENT METAR :
  • 212051Z AUTO 35009KT 10SM SCT048 SCT055 BKN100 27/15 A3028 RMK AO2 SLP218 T02720150 57016

EXPIRED METARs :
  • 211951Z AUTO 35003KT 10SM SCT048 BKN110 28/15 A3029 RMK AO2 SLP221 T02780150
  • 211851Z AUTO 35006KT 10SM FEW047 OVC095 27/14 A3032 RMK AO2 SLP231 T02670144

TAF KBKW
Valid from the 21 at 21:00 until the 22 at 18:00 UTC


212108Z 2121/2218 35009KT P6SM SCT050 BKN100
FM220000 00000KT P6SM FEW060
FM220400 00000KT P6SM FEW080
FM221600 23004KT P6SM FEW100
No reported NOTAMs for that airfield.



MET'MAP, your aeronautical weather chart ! - Copyright ORBIFLY December 2007 - Disclaimer

ORBIFLY MET'MAP TEAM :

Programming & Development : Alexandra Zaïnal
Concept & Development : Baudouin d'Aumeries
Co-Development & Prog : Marc-Olivier Méhu
Technical & hardware support : Manuel Goepfert

Contact : metmap@orbifly.com




SOURCES & CREDITS :

   NOAA       Earth
Advisory